Time;durP1;ratioP1;P1;durP2;ratioP2;P2;SDS_P1;SDS_P2;PMS_P1;PMS_P2;Temp;Humidity;BMP_temperature;BMP_pressure;BME280_temperature;BME280_humidity;BME280_pressure;Samples;Min_cycle;Max_cycle;Signal;HPM_P1;HPM_P2
2023/07/02 00:03:12;;;;;;;11.52;4.72;;;;;;;16.99;100.00;100733.44;10273962;28;20039;-78
2023/07/02 00:08:13;;;;;;;9.90;3.70;;;;;;;16.96;100.00;100732.03;10256704;29;20093;-77
2023/07/02 00:13:14;;;;;;;10.15;4.13;;;;;;;16.96;100.00;100730.13;10255710;28;20031;-77
2023/07/02 00:18:17;;;;;;;15.35;6.63;;;;;;;17.01;100.00;100731.31;10255879;29;20039;-78
2023/07/02 00:23:18;;;;;;;16.33;7.30;;;;;;;16.89;100.00;100729.44;10256016;29;20064;-78
2023/07/02 00:28:19;;;;;;;16.73;7.10;;;;;;;16.81;100.00;100731.72;10256057;29;20072;-77
2023/07/02 00:33:19;;;;;;;20.58;8.63;;;;;;;16.78;100.00;100738.50;10256533;29;20535;-78
2023/07/02 00:38:21;;;;;;;14.27;6.28;;;;;;;16.78;100.00;100735.75;10255299;29;20049;-78
2023/07/02 00:43:22;;;;;;;12.45;7.57;;;;;;;16.83;100.00;100735.88;10256023;28;20039;-78
2023/07/02 00:48:23;;;;;;;13.13;8.75;;;;;;;16.83;100.00;100746.81;10254743;29;20430;-77
2023/07/02 00:53:23;;;;;;;37.53;8.07;;;;;;;16.80;100.00;100744.56;10238557;29;20046;-78
2023/07/02 00:58:24;;;;;;;19.88;7.25;;;;;;;16.59;100.00;100740.56;10254345;29;20035;-77
2023/07/02 01:03:24;;;;;;;13.98;7.85;;;;;;;16.34;100.00;100743.56;10254806;29;20155;-77
2023/07/02 01:08:24;;;;;;;19.92;7.88;;;;;;;16.22;100.00;100756.41;10238218;29;20514;-78
2023/07/02 01:13:25;;;;;;;15.70;7.68;;;;;;;16.18;100.00;100747.03;10254539;28;20122;-78
2023/07/02 01:18:25;;;;;;;21.38;8.38;;;;;;;16.22;100.00;100748.22;10254556;29;20054;-78
2023/07/02 01:23:26;;;;;;;17.90;7.88;;;;;;;16.10;100.00;100753.66;10252931;29;20471;-78
2023/07/02 01:28:34;;;;;;;20.70;7.25;;;;;;;15.96;100.00;100753.09;10236445;29;20039;-78
2023/07/02 01:33:35;;;;;;;19.45;8.27;;;;;;;15.88;100.00;100750.69;10236150;29;20058;-77
2023/07/02 01:38:35;;;;;;;12.73;6.88;;;;;;;15.85;100.00;100751.16;10253107;28;20047;-77
2023/07/02 01:43:35;;;;;;;24.85;8.48;;;;;;;15.81;100.00;100744.53;10252748;29;20035;-77
2023/07/02 01:48:36;;;;;;;16.88;8.25;;;;;;;15.86;100.00;100746.53;10236702;29;20062;-77
2023/07/02 01:53:36;;;;;;;12.35;7.95;;;;;;;15.81;100.00;100748.06;10251725;29;20035;-78
2023/07/02 01:58:36;;;;;;;21.80;9.20;;;;;;;15.68;100.00;100758.41;10235707;29;20067;-78
2023/07/02 02:03:37;;;;;;;16.25;7.53;;;;;;;15.62;100.00;100767.47;10254759;29;20388;-78
2023/07/02 02:08:37;;;;;;;18.85;8.20;;;;;;;15.54;100.00;100771.41;10236420;29;20122;-79
2023/07/02 02:13:38;;;;;;;10.50;7.55;;;;;;;15.61;100.00;100765.84;10253312;29;20047;-78
2023/07/02 02:18:38;;;;;;;19.02;7.32;;;;;;;15.56;100.00;100764.63;10252872;29;20047;-77
2023/07/02 02:23:39;;;;;;;30.83;9.13;;;;;;;15.55;100.00;100773.06;10253435;28;20523;-78
2023/07/02 02:28:39;;;;;;;33.30;7.88;;;;;;;15.54;100.00;100779.59;10252356;28;20486;-78
2023/07/02 02:33:40;;;;;;;27.50;9.68;;;;;;;15.48;100.00;100781.34;10250997;29;20416;-78
2023/07/02 02:38:40;;;;;;;26.05;9.23;;;;;;;15.46;100.00;100790.81;10255772;28;20071;-78
2023/07/02 02:43:42;;;;;;;12.00;6.90;;;;;;;15.40;100.00;100789.84;10261510;29;20050;-78
2023/07/02 02:48:42;;;;;;;15.98;7.72;;;;;;;15.35;100.00;100790.56;10243453;29;20134;-78
2023/07/02 02:53:43;;;;;;;15.55;6.95;;;;;;;15.17;100.00;100793.31;10259164;29;20126;-78
2023/07/02 02:58:43;;;;;;;14.00;7.20;;;;;;;15.06;100.00;100794.94;10259357;29;20039;-77
2023/07/02 03:03:46;;;;;;;24.65;8.93;;;;;;;14.96;100.00;100800.09;10259533;28;20043;-77
2023/07/02 03:08:47;;;;;;;15.90;8.70;;;;;;;14.93;100.00;100792.34;10274285;28;20126;-78
2023/07/02 03:13:48;;;;;;;21.20;8.18;;;;;;;15.01;100.00;100796.69;10226743;29;20035;-78
2023/07/02 03:18:48;;;;;;;17.88;7.75;;;;;;;14.98;100.00;100788.97;10259643;29;20044;-78
2023/07/02 03:23:48;;;;;;;20.45;8.88;;;;;;;14.97;100.00;100793.59;10259859;29;20035;-78
2023/07/02 03:28:49;;;;;;;14.95;8.88;;;;;;;14.90;100.00;100795.56;10258715;29;20486;-77
2023/07/02 03:33:49;;;;;;;21.33;7.25;;;;;;;14.91;100.00;100801.84;10241288;29;20035;-77
2023/07/02 03:38:50;;;;;;;22.02;6.05;;;;;;;14.98;100.00;100811.59;10259189;28;20349;-78
2023/07/02 03:43:51;;;;;;;19.40;7.13;;;;;;;15.03;100.00;100814.50;10258025;29;20055;-77
2023/07/02 03:48:51;;;;;;;11.20;5.75;;;;;;;14.85;100.00;100811.78;10258268;28;20118;-78
2023/07/02 03:53:52;;;;;;;16.02;7.13;;;;;;;14.88;100.00;100819.50;10257403;29;20055;-78
2023/07/02 03:58:52;;;;;;;14.52;6.10;;;;;;;14.93;100.00;100825.06;10256143;29;20062;-78
2023/07/02 04:03:53;;;;;;;19.25;7.00;;;;;;;14.92;100.00;100830.78;10256740;28;20035;-78
2023/07/02 04:08:54;;;;;;;15.05;5.70;;;;;;;15.13;100.00;100833.03;10240699;29;20043;-78
2023/07/02 04:13:54;;;;;;;13.18;8.57;;;;;;;15.27;100.00;100825.50;10255519;29;20039;-78
2023/07/02 04:18:55;;;;;;;15.65;7.00;;;;;;;15.11;100.00;100830.53;10256666;28;20142;-78
2023/07/02 04:23:55;;;;;;;13.35;7.20;;;;;;;15.08;100.00;100836.44;10256582;29;20062;-77
2023/07/02 04:28:56;;;;;;;18.20;7.40;;;;;;;15.16;100.00;100840.75;10256113;29;20459;-78
2023/07/02 04:33:57;;;;;;;13.05;5.93;;;;;;;15.14;100.00;100842.88;10258426;29;20035;-78
2023/07/02 04:38:57;;;;;;;16.90;5.95;;;;;;;15.21;100.00;100853.69;10257829;28;20495;-77
2023/07/02 04:43:57;;;;;;;8.65;3.72;;;;;;;15.73;100.00;100862.25;10257595;29;20036;-77
2023/07/02 04:48:58;;;;;;;19.45;6.47;;;;;;;16.61;100.00;100853.22;10254983;29;20054;-79
2023/07/02 04:53:58;;;;;;;22.45;6.13;;;;;;;17.11;100.00;100857.34;10255416;28;20047;-78
2023/07/02 04:58:59;;;;;;;18.80;6.38;;;;;;;17.36;100.00;100860.59;10255567;28;20431;-79
2023/07/02 05:03:59;;;;;;;9.35;6.15;;;;;;;17.27;100.00;100861.25;10253074;29;20117;-79
2023/07/02 05:08:59;;;;;;;14.35;6.55;;;;;;;17.71;100.00;100867.00;10255508;29;20063;-79
2023/07/02 05:14:00;;;;;;;8.45;5.32;;;;;;;18.07;100.00;100863.03;10255759;29;20045;-80
2023/07/02 05:19:00;;;;;;;12.50;5.97;;;;;;;18.45;100.00;100861.44;10253636;29;20452;-80
2023/07/02 05:24:01;;;;;;;14.63;6.38;;;;;;;18.90;100.00;100868.72;10238039;29;20047;-79
2023/07/02 05:29:01;;;;;;;7.22;4.45;;;;;;;18.99;100.00;100889.16;10236529;29;20474;-79
2023/07/02 05:34:02;;;;;;;11.50;6.45;;;;;;;19.31;98.07;100886.53;10254591;28;20054;-80
2023/07/02 05:39:02;;;;;;;14.77;5.55;;;;;;;19.41;98.05;100894.88;10253248;28;20133;-79
2023/07/02 05:44:03;;;;;;;15.00;7.80;;;;;;;19.62;92.42;100900.59;10252388;29;20042;-80
2023/07/02 05:49:03;;;;;;;15.30;6.30;;;;;;;19.31;89.64;100902.19;10269600;28;20059;-79
2023/07/02 05:54:04;;;;;;;13.15;5.95;;;;;;;18.91;88.57;100892.31;10253527;29;20047;-79
2023/07/02 05:59:04;;;;;;;12.05;5.85;;;;;;;19.51;93.13;100913.41;10254480;28;20050;-79
2023/07/02 06:04:04;;;;;;;9.18;6.05;;;;;;;19.64;82.21;100912.22;10254478;29;20387;-79
2023/07/02 06:09:05;;;;;;;11.55;6.53;;;;;;;20.20;85.67;100918.28;10254187;29;20043;-79
2023/07/02 06:14:05;;;;;;;10.55;6.50;;;;;;;20.94;89.02;100925.75;10253462;28;20110;-80
2023/07/02 06:19:05;;;;;;;9.20;5.93;;;;;;;21.09;76.80;100916.72;10254777;29;20074;-80
2023/07/02 06:24:07;;;;;;;8.70;5.05;;;;;;;21.22;74.82;100923.66;10251842;29;20107;-80
2023/07/02 06:29:08;;;;;;;9.77;5.65;;;;;;;21.86;84.22;100919.78;10237316;29;20058;-80
2023/07/02 06:34:08;;;;;;;10.90;5.97;;;;;;;22.02;68.59;100929.78;10252506;29;20111;-79
2023/07/02 06:39:09;;;;;;;13.98;5.82;;;;;;;21.96;62.75;100925.34;10253277;29;20035;-79
2023/07/02 06:44:09;;;;;;;13.85;7.18;;;;;;;22.31;71.61;100932.88;10219981;29;20458;-79
2023/07/02 06:49:10;;;;;;;8.38;5.72;;;;;;;22.00;61.30;100946.59;10254691;28;20180;-79
2023/07/02 06:54:10;;;;;;;14.75;6.32;;;;;;;22.07;62.12;100951.81;10253611;28;20043;-79
2023/07/02 06:59:11;;;;;;;10.05;5.95;;;;;;;22.48;57.90;100952.72;10251865;29;20034;-80
2023/07/02 07:04:11;;;;;;;13.75;6.47;;;;;;;22.70;55.33;100957.16;10237257;29;20035;-78
2023/07/02 07:09:12;;;;;;;8.90;4.75;;;;;;;22.65;59.03;100960.72;10253011;29;20063;-81
2023/07/02 07:14:12;;;;;;;12.32;5.55;;;;;;;22.93;55.47;100967.63;10253888;29;20114;-83
2023/07/02 07:19:13;;;;;;;9.60;6.43;;;;;;;23.24;53.22;100973.09;10253820;29;20078;-80
2023/07/02 07:24:13;;;;;;;6.85;5.13;;;;;;;23.02;53.03;100975.38;10256128;28;20534;-78
2023/07/02 07:29:14;;;;;;;12.90;6.20;;;;;;;23.77;55.59;100979.03;10260479;29;20067;-79
2023/07/02 07:34:15;;;;;;;13.38;4.82;;;;;;;24.32;52.20;100982.56;10260139;29;20493;-79
2023/07/02 07:39:15;;;;;;;8.75;5.70;;;;;;;24.30;50.70;100995.84;10260808;29;20494;-79
2023/07/02 07:44:16;;;;;;;5.78;4.05;;;;;;;23.83;52.33;100986.16;10243037;29;20097;-79
2023/07/02 07:49:16;;;;;;;11.50;5.30;;;;;;;22.87;54.16;100984.47;10260409;29;20059;-79
2023/07/02 07:54:17;;;;;;;5.75;5.18;;;;;;;24.13;53.83;100987.13;10260444;29;20487;-79
2023/07/02 07:59:17;;;;;;;4.82;3.75;;;;;;;25.13;50.69;100993.28;10242958;29;20416;-79
2023/07/02 08:04:18;;;;;;;10.45;4.15;;;;;;;25.40;49.73;100988.00;10258084;29;20035;-79
2023/07/02 08:09:18;;;;;;;8.98;5.30;;;;;;;25.32;48.08;100991.41;10259028;28;20485;-79
2023/07/02 08:14:19;;;;;;;11.93;5.40;;;;;;;25.39;49.21;100991.03;10256683;29;20531;-79
2023/07/02 08:19:21;;;;;;;6.88;4.10;;;;;;;25.62;44.48;101000.47;10256593;29;20495;-79
2023/07/02 08:24:21;;;;;;;11.00;6.13;;;;;;;25.81;48.26;100998.59;10256060;29;20110;-79
2023/07/02 08:29:22;;;;;;;7.57;4.88;;;;;;;26.00;43.94;101004.16;10255116;29;20121;-79
2023/07/02 08:34:22;;;;;;;9.68;4.70;;;;;;;25.69;47.31;101018.41;10255077;28;20038;-79
2023/07/02 08:39:23;;;;;;;7.82;4.88;;;;;;;24.86;49.60;101014.00;10256943;29;20365;-79
2023/07/02 08:44:23;;;;;;;13.10;5.05;;;;;;;25.68;53.52;101008.44;10239166;29;20086;-80
2023/07/02 08:49:24;;;;;;;9.52;5.15;;;;;;;26.60;46.16;101007.16;10254668;29;20055;-80
2023/07/02 08:54:25;;;;;;;10.82;5.93;;;;;;;26.98;45.36;101015.41;10239538;29;20139;-80
2023/07/02 08:59:25;;;;;;;6.20;4.47;;;;;;;26.79;48.61;101020.22;10254725;28;20059;-72
2023/07/02 09:04:26;;;;;;;5.00;4.00;;;;;;;26.74;47.69;101021.13;10253721;29;20431;-71
2023/07/02 09:09:26;;;;;;;5.45;3.42;;;;;;;26.62;43.14;101031.88;10236970;29;20101;-72
2023/07/02 09:14:30;;;;;;;5.60;4.63;;;;;;;26.95;42.88;101024.38;10253492;28;20039;-71
2023/07/02 09:19:31;;;;;;;8.65;3.83;;;;;;;26.94;43.70;101019.94;10254090;29;20035;-72
2023/07/02 09:24:32;;;;;;;4.70;4.30;;;;;;;27.52;44.23;101033.34;10220903;29;20098;-74
2023/07/02 09:29:33;;;;;;;5.93;4.82;;;;;;;27.55;41.60;101032.72;10252626;29;20558;-74
2023/07/02 09:34:35;;;;;;;15.55;4.13;;;;;;;27.27;41.83;101028.28;10253217;29;20102;-74
2023/07/02 09:39:36;;;;;;;5.13;4.13;;;;;;;26.92;42.14;101026.94;10252392;29;20035;-74
2023/07/02 09:44:36;;;;;;;6.72;4.97;;;;;;;27.24;40.36;101034.44;10253878;28;20037;-74
2023/07/02 09:50:02;;;;;;;7.22;4.53;;;;;;;27.05;39.29;101026.13;10219996;29;20027;-71
2023/07/02 09:55:04;;;;;;;9.30;4.13;;;;;;;27.10;38.70;101018.53;10252091;29;20059;-71
2023/07/02 10:00:07;;;;;;;4.82;3.88;;;;;;;27.73;36.67;101025.41;10251778;29;20050;-72
2023/07/02 10:05:08;;;;;;;5.70;4.60;;;;;;;28.02;35.39;101030.66;10236303;29;20035;-71
2023/07/02 10:10:08;;;;;;;13.30;4.80;;;;;;;28.11;38.24;101047.47;10251434;29;20439;-72
2023/07/02 10:15:10;;;;;;;5.00;3.85;;;;;;;27.75;34.42;101025.91;10251126;29;20114;-71
2023/07/02 10:20:12;;;;;;;6.10;4.53;;;;;;;27.66;35.62;101038.06;10251187;29;20175;-71
2023/07/02 10:25:13;;;;;;;6.03;3.05;;;;;;;28.02;36.23;101041.81;10251870;28;20028;-74
2023/07/02 10:30:13;;;;;;;4.30;3.90;;;;;;;27.49;35.55;101039.53;10219653;29;20035;-73
2023/07/02 10:35:15;;;;;;;6.88;4.85;;;;;;;27.75;35.96;101045.41;10251912;29;20431;-72
2023/07/02 10:40:16;;;;;;;5.60;3.80;;;;;;;28.16;35.39;101040.94;10235686;29;20039;-73
2023/07/02 10:45:17;;;;;;;8.65;5.13;;;;;;;28.02;35.34;101041.81;10250422;29;20456;-73
2023/07/02 10:50:21;;;;;;;4.15;3.83;;;;;;;27.11;35.21;101034.09;10235185;29;20035;-72
2023/07/02 10:55:25;;;;;;;4.68;4.22;;;;;;;27.83;34.07;101029.97;10251092;28;20130;-70
2023/07/02 11:00:25;;;;;;;6.25;4.80;;;;;;;27.75;34.71;101048.19;10255233;28;20047;-71
2023/07/02 11:05:26;;;;;;;12.40;5.20;;;;;;;28.52;31.60;101040.97;10258296;29;20043;-71
2023/07/02 11:10:27;;;;;;;8.80;4.03;;;;;;;28.32;31.62;101039.47;10258978;29;20039;-71
2023/07/02 11:15:35;;;;;;;4.45;3.90;;;;;;;28.03;31.75;101042.63;10258035;29;20043;-71
2023/07/02 11:20:36;;;;;;;6.25;5.35;;;;;;;29.07;33.87;101051.06;10242271;29;20039;-72
2023/07/02 11:25:36;;;;;;;12.23;4.55;;;;;;;29.03;30.61;101052.84;10243375;29;20031;-71
2023/07/02 11:30:45;;;;;;;4.78;4.38;;;;;;;28.77;31.50;101059.03;10242844;29;20478;-70
2023/07/02 11:35:45;;;;;;;7.82;6.05;;;;;;;28.58;31.21;101058.41;10257157;29;20043;-72
2023/07/02 11:40:48;;;;;;;7.50;5.38;;;;;;;28.31;30.05;101053.72;10242080;29;20366;-71
2023/07/02 11:45:48;;;;;;;7.07;6.13;;;;;;;28.29;30.82;101063.19;10256968;29;20051;-71
2023/07/02 11:50:49;;;;;;;7.53;5.07;;;;;;;28.70;29.58;101051.13;10272734;28;20043;-74
2023/07/02 11:55:49;;;;;;;5.47;4.82;;;;;;;27.53;29.31;101059.19;10256879;29;20034;-73
2023/07/02 12:00:50;;;;;;;23.00;5.90;;;;;;;28.22;30.53;101048.06;10256832;28;20095;-74
2023/07/02 12:05:51;;;;;;;6.55;5.55;;;;;;;27.71;31.81;101054.69;10255611;29;20133;-71
2023/07/02 12:10:51;;;;;;;6.38;5.35;;;;;;;27.56;32.68;101061.38;10256227;28;20043;-71
2023/07/02 12:15:52;;;;;;;8.57;4.32;;;;;;;27.86;31.47;101073.88;10257182;29;20122;-72
2023/07/02 12:20:52;;;;;;;11.88;6.20;;;;;;;26.71;32.69;101074.53;10255760;29;20164;-73
2023/07/02 12:25:53;;;;;;;13.32;6.05;;;;;;;25.98;33.45;101073.03;10256611;29;20062;-72
2023/07/02 12:30:53;;;;;;;8.48;4.90;;;;;;;24.98;36.31;101080.09;10256136;29;20042;-72
2023/07/02 12:35:54;;;;;;;8.68;6.18;;;;;;;25.67;34.11;101090.00;10256239;28;20391;-72
2023/07/02 12:40:54;;;;;;;10.25;5.93;;;;;;;24.89;35.68;101079.06;10256026;28;20427;-72
2023/07/02 12:45:55;;;;;;;5.70;4.10;;;;;;;25.50;35.57;101084.09;10255457;29;20094;-72
2023/07/02 12:50:56;;;;;;;8.85;5.30;;;;;;;26.55;33.99;101073.94;10254499;29;20503;-72
2023/07/02 12:55:56;;;;;;;13.88;6.18;;;;;;;25.23;36.28;101081.84;10238441;29;20039;-70
2023/07/02 13:00:57;;;;;;;7.25;4.63;;;;;;;25.13;36.13;101098.56;10254073;29;20062;-71
2023/07/02 13:05:57;;;;;;;14.07;5.72;;;;;;;24.18;38.26;101094.16;10253235;29;20126;-70
2023/07/02 13:10:58;;;;;;;8.15;5.93;;;;;;;23.86;37.64;101101.75;10254650;29;20127;-73
2023/07/02 13:15:59;;;;;;;10.88;4.15;;;;;;;24.96;37.48;101110.06;10238050;29;20118;-73
2023/07/02 13:20:59;;;;;;;10.48;4.97;;;;;;;25.77;35.82;101107.66;10220928;28;20031;-72
2023/07/02 13:26:00;;;;;;;8.70;7.82;;;;;;;25.01;36.16;101115.53;10269514;28;20127;-75
2023/07/02 13:31:00;;;;;;;4.28;3.97;;;;;;;24.10;34.72;101109.41;10221237;29;20126;-74
2023/07/02 13:36:01;;;;;;;16.00;12.65;;;;;;;25.64;35.06;101117.50;10252975;29;20476;-75
2023/07/02 13:41:01;;;;;;;4.65;4.25;;;;;;;26.28;36.45;101112.59;10253578;28;20068;-78
2023/07/02 13:46:02;;;;;;;4.75;4.30;;;;;;;27.28;32.75;101114.19;10252971;29;20073;-80
2023/07/02 13:51:03;;;;;;;9.50;4.53;;;;;;;27.23;32.82;101110.66;10256423;29;20116;-84
2023/07/02 13:56:03;;;;;;;6.82;3.88;;;;;;;26.78;33.52;101099.97;10256597;29;20039;-84
2023/07/02 14:01:04;;;;;;;6.28;4.43;;;;;;;25.70;34.41;101103.28;10224500;29;20027;-85
2023/07/02 14:06:04;;;;;;;5.07;4.57;;;;;;;25.33;36.37;101087.28;10270999;28;20035;-84
2023/07/02 14:11:05;;;;;;;6.85;3.90;;;;;;;25.37;36.24;101093.09;10254288;29;20046;-84
2023/07/02 14:16:05;;;;;;;5.55;3.75;;;;;;;25.81;36.12;101094.84;10236930;29;20071;-83
2023/07/02 14:21:06;;;;;;;6.07;5.32;;;;;;;25.79;34.45;101084.03;10238919;29;20058;-83
2023/07/02 14:26:08;;;;;;;5.55;4.18;;;;;;;26.63;33.91;101083.53;10236654;29;20039;-82
2023/07/02 14:31:08;;;;;;;15.05;4.53;;;;;;;26.13;36.21;101081.16;10254011;29;20088;-82
2023/07/02 14:36:09;;;;;;;11.40;4.47;;;;;;;25.75;36.31;101088.53;10255456;29;20475;-81
2023/07/02 14:41:09;;;;;;;7.18;4.60;;;;;;;24.99;36.08;101082.59;10264105;29;20604;-81
2023/07/02 14:46:11;;;;;;;12.00;4.90;;;;;;;24.21;38.36;101074.22;10241924;29;20473;-85
2023/07/02 14:51:11;;;;;;;12.85;5.32;;;;;;;23.86;38.90;101078.78;10276521;29;20039;-79
2023/07/02 14:56:12;;;;;;;6.05;4.38;;;;;;;24.43;37.54;101071.09;10233804;29;20038;-81
2023/07/02 15:01:12;;;;;;;6.95;4.78;;;;;;;24.08;38.25;101065.41;10245356;29;20043;-81
2023/07/02 15:06:14;;;;;;;6.93;4.40;;;;;;;23.25;38.68;101065.09;10227554;29;20043;-80
2023/07/02 15:11:15;;;;;;;4.65;4.25;;;;;;;22.55;39.62;101054.56;10227180;29;20348;-80
2023/07/02 15:16:16;;;;;;;13.85;7.70;;;;;;;22.41;39.90;101043.25;10226894;29;20458;-81
2023/07/02 15:21:18;;;;;;;12.05;7.82;;;;;;;22.51;40.06;101053.47;10258619;29;20039;-80
2023/07/02 15:26:18;;;;;;;16.73;5.40;;;;;;;23.70;39.57;101042.06;10227073;29;20039;-81
2023/07/02 15:31:19;;;;;;;6.22;5.03;;;;;;;23.94;38.09;101041.44;10242357;29;20118;-80
2023/07/02 15:36:21;;;;;;;10.90;5.55;;;;;;;24.26;38.49;101044.59;10242122;29;20480;-81
2023/07/02 15:41:21;;;;;;;10.60;6.28;;;;;;;24.42;38.94;101041.75;10241917;29;20035;-80
2023/07/02 15:46:22;;;;;;;15.43;8.63;;;;;;;24.62;38.41;101025.00;10258779;28;20472;-78
2023/07/02 15:51:24;;;;;;;11.77;5.53;;;;;;;24.34;37.14;101030.13;10243007;29;20091;-80
2023/07/02 15:56:26;;;;;;;6.78;4.65;;;;;;;24.26;37.57;101025.22;10245136;29;20114;-81
2023/07/02 16:01:27;;;;;;;12.30;9.30;;;;;;;24.42;38.29;101022.38;10258943;29;20038;-80
2023/07/02 16:06:33;;;;;;;10.25;5.88;;;;;;;24.14;38.35;101019.19;10258216;29;20039;-80
2023/07/02 16:11:35;;;;;;;8.25;5.55;;;;;;;23.31;39.35;101023.38;10259179;29;20035;-80
2023/07/02 16:16:40;;;;;;;6.43;5.70;;;;;;;22.78;39.98;101019.25;10258211;28;20482;-80
2023/07/02 16:21:40;;;;;;;7.10;6.25;;;;;;;23.04;40.37;101017.31;10240321;29;20030;-79
2023/07/02 16:26:41;;;;;;;7.35;5.78;;;;;;;22.88;40.98;101009.03;10240879;29;20122;-81
2023/07/02 16:31:47;;;;;;;18.05;12.23;;;;;;;22.71;41.58;101014.00;10257798;29;20031;-80
2023/07/02 16:36:47;;;;;;;10.65;7.57;;;;;;;22.47;42.04;101011.78;10258249;28;20118;-80
2023/07/02 16:41:48;;;;;;;8.43;5.75;;;;;;;22.41;42.50;101014.81;10240801;29;20031;-80
2023/07/02 16:46:51;;;;;;;14.35;8.98;;;;;;;22.20;43.12;101017.53;10256492;29;20432;-80
2023/07/02 16:51:52;;;;;;;15.40;6.78;;;;;;;21.85;44.75;101000.84;10255598;29;20039;-80
2023/07/02 16:57:00;;;;;;;17.27;6.00;;;;;;;21.54;45.17;101000.75;10222209;28;20031;-80
2023/07/02 17:02:00;;;;;;;20.17;7.35;;;;;;;21.46;45.40;101006.75;10239141;29;20035;-80
2023/07/02 17:07:01;;;;;;;18.50;5.90;;;;;;;21.33;45.48;101000.59;10256643;29;20090;-80
2023/07/02 17:12:03;;;;;;;16.98;6.72;;;;;;;21.16;45.37;101010.13;10238250;29;20035;-79
2023/07/02 17:17:05;;;;;;;23.75;5.88;;;;;;;21.08;45.72;100997.69;10239701;29;20086;-80
2023/07/02 17:22:08;;;;;;;9.60;5.78;;;;;;;20.84;46.37;101002.75;10258415;29;20040;-80
2023/07/02 17:27:09;;;;;;;14.32;6.50;;;;;;;20.84;46.83;100997.25;10224578;29;20387;-79
2023/07/02 17:32:09;;;;;;;14.13;5.95;;;;;;;20.61;48.38;100993.78;10254818;29;20031;-80
2023/07/02 17:37:12;;;;;;;17.48;6.13;;;;;;;20.35;49.52;101000.91;10255023;28;20043;-79
2023/07/02 17:42:14;;;;;;;5.85;4.30;;;;;;;20.27;49.96;100998.63;10239203;29;20034;-79
2023/07/02 17:47:16;;;;;;;14.40;6.22;;;;;;;20.09;51.93;100990.75;10222085;29;20063;-79
2023/07/02 17:52:18;;;;;;;15.48;6.43;;;;;;;19.97;53.37;100993.63;10236892;29;20035;-80
2023/07/02 17:57:19;;;;;;;12.20;5.63;;;;;;;19.83;54.87;100992.38;10222122;29;20071;-79
2023/07/02 18:02:19;;;;;;;16.27;5.80;;;;;;;19.79;55.01;100985.75;10253476;29;20047;-79
2023/07/02 18:07:20;;;;;;;8.38;4.25;;;;;;;19.70;56.40;100983.44;10251858;28;20043;-80
2023/07/02 18:12:24;;;;;;;11.20;4.72;;;;;;;19.62;58.42;100983.88;10236753;29;20166;-79
2023/07/02 18:17:25;;;;;;;11.63;5.57;;;;;;;19.55;57.04;100985.13;10254286;28;20039;-79
2023/07/02 18:22:25;;;;;;;9.05;5.85;;;;;;;19.40;58.73;100974.75;10253169;28;20067;-80
2023/07/02 18:27:25;;;;;;;10.70;5.10;;;;;;;19.32;60.48;100966.97;10253986;29;20066;-79
2023/07/02 18:32:29;;;;;;;21.27;5.85;;;;;;;19.22;63.85;100964.94;10237902;29;20387;-80
2023/07/02 18:37:30;;;;;;;12.15;4.45;;;;;;;19.06;66.00;100974.88;10252400;29;20046;-79
2023/07/02 18:42:30;;;;;;;6.70;3.90;;;;;;;19.04;66.26;100980.59;10251561;29;20070;-79
2023/07/02 18:47:38;;;;;;;20.80;5.70;;;;;;;18.96;71.31;100972.81;10251637;29;20082;-79
2023/07/02 18:52:43;;;;;;;15.95;5.18;;;;;;;18.85;75.69;100981.13;10236236;29;20070;-79
2023/07/02 18:57:43;;;;;;;13.95;4.90;;;;;;;18.73;77.20;100973.81;10235335;29;20474;-79
2023/07/02 19:02:47;;;;;;;21.90;5.93;;;;;;;18.70;78.77;100973.47;10251806;29;20082;-80
2023/07/02 19:07:47;;;;;;;14.48;5.43;;;;;;;18.69;79.33;100969.03;10238035;29;20114;-79
2023/07/02 19:12:48;;;;;;;17.35;6.07;;;;;;;18.66;77.59;100975.84;10253204;29;20437;-78
2023/07/02 19:17:48;;;;;;;16.90;5.20;;;;;;;18.56;84.20;100967.47;10220312;29;20097;-78
2023/07/02 19:22:49;;;;;;;11.63;5.78;;;;;;;18.44;86.23;100964.81;10241560;29;20145;-79
2023/07/02 19:27:49;;;;;;;20.42;6.20;;;;;;;18.35;87.51;100956.16;10259348;29;20490;-79
2023/07/02 19:32:50;;;;;;;5.78;4.15;;;;;;;18.39;84.96;100967.47;10259882;28;20464;-79
2023/07/02 19:37:51;;;;;;;10.93;5.40;;;;;;;18.31;88.60;100963.22;10226252;29;20098;-79
2023/07/02 19:42:52;;;;;;;23.17;6.55;;;;;;;18.35;86.64;100956.16;10241664;29;20031;-80
2023/07/02 19:47:53;;;;;;;21.13;5.82;;;;;;;18.35;86.67;100969.88;10258520;29;20051;-80
2023/07/02 19:52:53;;;;;;;14.18;6.10;;;;;;;18.27;91.61;100964.78;10242655;29;20123;-79
2023/07/02 19:57:53;;;;;;;22.23;5.53;;;;;;;18.21;92.16;100968.50;10259301;29;20069;-79
2023/07/02 20:02:54;;;;;;;19.13;5.40;;;;;;;18.19;92.18;100970.69;10229934;29;20043;-80
2023/07/02 20:07:54;;;;;;;28.50;5.70;;;;;;;18.19;92.55;100967.94;10258730;28;20126;-79
2023/07/02 20:12:55;;;;;;;16.48;6.70;;;;;;;18.12;95.54;100961.75;10240916;29;20499;-79
2023/07/02 20:17:55;;;;;;;11.27;6.35;;;;;;;18.06;96.68;100963.59;10255942;29;20059;-79
2023/07/02 20:22:56;;;;;;;16.42;6.10;;;;;;;18.03;96.01;100974.22;10257251;28;20475;-79
2023/07/02 20:27:57;;;;;;;9.80;5.22;;;;;;;18.06;96.65;100957.25;10257276;28;20035;-78
2023/07/02 20:32:57;;;;;;;18.45;7.03;;;;;;;18.01;97.38;100965.41;10240389;29;20193;-79
2023/07/02 20:37:59;;;;;;;17.13;6.85;;;;;;;17.99;99.35;100962.88;10225053;29;20067;-77
2023/07/02 20:43:00;;;;;;;29.88;7.65;;;;;;;18.00;98.01;100961.84;10256233;28;20062;-77
2023/07/02 20:48:02;;;;;;;16.70;5.53;;;;;;;17.97;98.84;100964.22;10270398;28;20490;-77
2023/07/02 20:53:04;;;;;;;19.15;6.40;;;;;;;17.97;99.91;100969.72;10257148;28;20083;-77
2023/07/02 20:58:04;;;;;;;16.13;6.60;;;;;;;17.93;100.00;100965.78;10255190;29;20442;-77
2023/07/02 21:03:05;;;;;;;28.35;7.15;;;;;;;17.95;100.00;100961.72;10256771;29;20094;-78
2023/07/02 21:08:05;;;;;;;25.77;7.97;;;;;;;17.96;99.28;100962.56;10238975;29;20047;-78
2023/07/02 21:13:06;;;;;;;21.75;7.53;;;;;;;17.95;99.24;100960.91;10271181;28;20047;-78
2023/07/02 21:18:06;;;;;;;20.25;5.65;;;;;;;17.97;98.98;100967.78;10238724;29;20084;-77
2023/07/02 21:23:07;;;;;;;14.75;5.95;;;;;;;17.95;98.80;100963.63;10238421;29;20035;-79
2023/07/02 21:28:07;;;;;;;14.77;5.70;;;;;;;17.96;97.39;100962.56;10253624;29;20055;-77
2023/07/02 21:33:08;;;;;;;22.60;6.05;;;;;;;17.97;96.63;100964.22;10238263;29;20067;-77
2023/07/02 21:38:08;;;;;;;16.92;8.05;;;;;;;17.94;96.45;100956.50;10268510;28;20114;-77
2023/07/02 21:43:08;;;;;;;9.70;6.20;;;;;;;17.97;94.84;100958.75;10252482;28;20035;-77
2023/07/02 21:48:09;;;;;;;25.02;6.80;;;;;;;17.99;93.96;100953.84;10254105;28;20126;-79
2023/07/02 21:53:09;;;;;;;19.40;6.63;;;;;;;17.99;93.86;100959.31;10254606;28;20058;-78
2023/07/02 21:58:10;;;;;;;19.88;7.15;;;;;;;18.01;92.92;100948.94;10252151;29;20043;-78
2023/07/02 22:03:11;;;;;;;31.48;6.68;;;;;;;17.99;94.05;100945.63;10253364;28;20117;-79
2023/07/02 22:08:11;;;;;;;31.70;7.90;;;;;;;17.92;97.69;100945.78;10252757;29;20132;-79
2023/07/02 22:13:12;;;;;;;20.70;6.95;;;;;;;17.87;100.00;100952.00;10251719;29;20035;-78
2023/07/02 22:18:12;;;;;;;20.80;7.20;;;;;;;17.86;100.00;100950.31;10252170;29;20039;-78
2023/07/02 22:23:13;;;;;;;25.75;7.20;;;;;;;17.83;100.00;100947.25;10235658;29;20089;-79
2023/07/02 22:28:13;;;;;;;23.67;6.75;;;;;;;17.73;100.00;100933.31;10256752;28;20038;-78
2023/07/02 22:33:14;;;;;;;21.83;5.80;;;;;;;17.76;100.00;100930.91;10272891;28;20459;-79
2023/07/02 22:38:14;;;;;;;24.13;5.38;;;;;;;17.79;100.00;100930.47;10239901;29;20067;-79
2023/07/02 22:43:14;;;;;;;21.27;6.38;;;;;;;17.78;100.00;100922.50;10251682;29;20424;-79
2023/07/02 22:48:15;;;;;;;20.27;7.47;;;;;;;17.78;100.00;100926.06;10266997;28;20215;-79